createdAt,value
2023-01-17T00:00:33.811Z,47.53
2023-01-17T00:01:33.863Z,49.15
2023-01-17T00:02:33.865Z,48.50
2023-01-17T00:03:33.787Z,51.72
2023-01-17T00:04:33.741Z,57.69
2023-01-17T00:05:33.772Z,56.07
2023-01-17T00:06:33.743Z,47.21
2023-01-17T00:07:33.743Z,62.52
2023-01-17T00:08:33.793Z,63.16
2023-01-17T00:09:33.725Z,62.36
2023-01-17T00:10:33.682Z,63.97
2023-01-17T00:11:33.704Z,50.76
2023-01-17T00:12:33.655Z,52.05
2023-01-17T00:13:33.644Z,58.81
2023-01-17T00:14:33.656Z,54.79
2023-01-17T00:15:33.671Z,64.13
2023-01-17T00:16:33.658Z,62.36
2023-01-17T00:17:34.269Z,48.34
2023-01-17T00:18:33.576Z,59.30
2023-01-17T00:19:33.570Z,52.21
2023-01-17T00:20:33.592Z,49.95
2023-01-17T00:21:34.262Z,47.53
2023-01-17T00:22:33.587Z,47.37
2023-01-17T00:23:33.575Z,49.95
2023-01-17T00:24:33.561Z,48.98
2023-01-17T00:25:33.528Z,45.76
2023-01-17T00:26:33.496Z,47.05
2023-01-17T00:27:33.553Z,48.50
2023-01-17T00:28:33.608Z,47.86
2023-01-17T00:29:33.483Z,48.34
2023-01-17T00:30:33.513Z,56.24
2023-01-17T00:31:33.495Z,47.70
2023-01-17T00:32:33.470Z,48.02
2023-01-17T00:33:34.470Z,51.08
2023-01-17T00:34:33.413Z,49.15
2023-01-17T00:35:33.400Z,61.23
2023-01-17T00:36:33.393Z,63.33
2023-01-17T00:37:33.419Z,66.06
2023-01-17T00:38:33.401Z,44.96
2023-01-17T00:39:33.501Z,44.63
2023-01-17T00:40:33.423Z,55.59
2023-01-17T00:41:33.433Z,48.34
2023-01-17T00:42:33.423Z,63.33
2023-01-17T00:43:33.370Z,47.70
2023-01-17T00:44:33.408Z,52.85
2023-01-17T00:45:33.364Z,50.27
2023-01-17T00:46:33.409Z,58.97
2023-01-17T00:47:33.303Z,49.15
2023-01-17T00:48:33.311Z,49.31
2023-01-17T00:49:33.312Z,49.95
2023-01-17T00:50:33.303Z,54.79
2023-01-17T00:51:33.307Z,45.76
2023-01-17T00:52:33.309Z,61.07
2023-01-17T00:53:33.308Z,56.56
2023-01-17T00:54:33.242Z,61.87
2023-01-17T00:55:33.263Z,45.92
2023-01-17T00:56:33.259Z,46.73
2023-01-17T00:57:33.213Z,58.33
2023-01-17T00:58:33.235Z,46.89
2023-01-17T00:59:33.249Z,48.98
2023-01-17T01:00:33.324Z,54.62
2023-01-17T01:01:33.239Z,55.91
2023-01-17T01:02:33.226Z,46.08
2023-01-17T01:03:33.174Z,48.66
2023-01-17T01:04:33.207Z,47.21
2023-01-17T01:05:33.138Z,53.33
2023-01-17T01:06:33.229Z,54.95
2023-01-17T01:07:33.090Z,53.33
2023-01-17T01:08:33.060Z,53.01
2023-01-17T01:09:33.155Z,53.82
2023-01-17T01:10:33.071Z,60.59
2023-01-17T01:11:33.101Z,51.08
2023-01-17T01:12:33.072Z,46.57
2023-01-17T01:13:33.075Z,45.76
2023-01-17T01:14:33.044Z,50.43
2023-01-17T01:15:33.136Z,45.28
2023-01-17T01:16:33.077Z,53.66
2023-01-17T01:17:33.062Z,53.66
2023-01-17T01:18:33.012Z,46.89
2023-01-17T01:19:33.008Z,54.62
2023-01-17T01:20:32.957Z,44.47
2023-01-17T01:21:32.964Z,45.44
2023-01-17T01:22:32.985Z,53.01
2023-01-17T01:23:32.949Z,48.66
2023-01-17T01:24:32.932Z,48.50
2023-01-17T01:25:32.924Z,45.92
2023-01-17T01:26:32.931Z,46.57
2023-01-17T01:27:32.954Z,45.92
2023-01-17T01:28:32.908Z,46.57
2023-01-17T01:29:32.897Z,47.70
2023-01-17T01:30:32.927Z,48.98
2023-01-17T01:31:32.879Z,56.40
2023-01-17T01:32:32.843Z,62.84
2023-01-17T01:33:32.863Z,48.18
2023-01-17T01:34:32.871Z,46.57
2023-01-17T01:35:32.834Z,55.43
2023-01-17T01:36:32.844Z,45.28
2023-01-17T01:37:32.794Z,64.61
2023-01-17T01:38:32.832Z,56.24
2023-01-17T01:39:32.789Z,47.21
2023-01-17T01:40:33.360Z,55.43
2023-01-17T01:41:32.762Z,48.98
2023-01-17T01:42:32.753Z,58.33
2023-01-17T01:43:32.811Z,56.56
2023-01-17T01:44:32.725Z,46.25
2023-01-17T01:45:32.808Z,47.05
2023-01-17T01:46:32.737Z,47.70
2023-01-17T01:47:33.407Z,51.72
2023-01-17T01:48:32.694Z,45.12
2023-01-17T01:49:32.677Z,48.50
2023-01-17T01:50:32.677Z,48.02
2023-01-17T01:51:32.631Z,68.00
2023-01-17T01:52:32.659Z,52.05
2023-01-17T01:53:32.618Z,48.50
2023-01-17T01:54:32.614Z,48.02
2023-01-17T01:55:32.635Z,67.35
2023-01-17T01:56:32.616Z,62.52
2023-01-17T01:57:32.581Z,58.17
2023-01-17T01:58:32.580Z,51.56
2023-01-17T01:59:32.562Z,49.31
2023-01-17T02:00:32.582Z,52.21
2023-01-17T02:01:32.692Z,53.98
2023-01-17T02:02:32.567Z,60.26
2023-01-17T02:03:32.589Z,56.07
2023-01-17T02:04:32.540Z,47.21
2023-01-17T02:05:32.517Z,46.41
2023-01-17T02:06:32.490Z,45.92
2023-01-17T02:07:32.454Z,59.14
2023-01-17T02:08:32.510Z,46.25
2023-01-17T02:09:32.468Z,51.56
2023-01-17T02:10:32.455Z,45.44
2023-01-17T02:11:32.464Z,47.70
2023-01-17T02:12:32.461Z,53.66
2023-01-17T02:13:32.434Z,54.95
2023-01-17T02:14:32.395Z,58.01
2023-01-17T02:15:32.389Z,55.11
2023-01-17T02:16:32.426Z,45.12
2023-01-17T02:17:32.405Z,45.92
2023-01-17T02:18:33.239Z,46.73
2023-01-17T02:19:32.386Z,60.26
2023-01-17T02:20:32.392Z,64.13
2023-01-17T02:21:32.336Z,54.14
2023-01-17T02:22:32.413Z,46.89
2023-01-17T02:23:32.331Z,47.53
2023-01-17T02:24:32.262Z,56.72
2023-01-17T02:25:32.283Z,46.73
2023-01-17T02:26:32.282Z,47.70
2023-01-17T02:27:32.295Z,62.68
2023-01-17T02:28:32.244Z,57.04
2023-01-17T02:29:32.261Z,53.98
2023-01-17T02:30:32.250Z,47.37
2023-01-17T02:31:32.260Z,47.70
2023-01-17T02:32:32.230Z,51.72
2023-01-17T02:33:32.244Z,46.08
2023-01-17T02:34:32.203Z,48.02
2023-01-17T02:35:32.171Z,52.85
2023-01-17T02:36:32.163Z,63.81
2023-01-17T02:37:32.140Z,54.62
2023-01-17T02:38:32.200Z,53.01
2023-01-17T02:39:32.167Z,52.37
2023-01-17T02:40:32.127Z,60.42
2023-01-17T02:41:32.876Z,51.08
2023-01-17T02:42:32.143Z,59.62
2023-01-17T02:43:32.188Z,47.70
2023-01-17T02:44:32.121Z,52.85
2023-01-17T02:45:32.105Z,51.88
2023-01-17T02:46:32.111Z,48.50
2023-01-17T02:47:32.078Z,49.63
2023-01-17T02:48:32.084Z,62.04
2023-01-17T02:49:32.075Z,54.79
2023-01-17T02:50:32.060Z,47.21
2023-01-17T02:51:32.034Z,48.02
2023-01-17T02:52:32.013Z,69.45
2023-01-17T02:53:31.983Z,66.06
2023-01-17T02:54:31.996Z,58.65
2023-01-17T02:55:31.977Z,53.66
2023-01-17T02:56:32.699Z,55.91
2023-01-17T02:57:31.930Z,48.18
2023-01-17T02:58:31.943Z,51.08
2023-01-17T02:59:32.848Z,56.56
2023-01-17T03:00:31.890Z,63.16
2023-01-17T03:01:32.097Z,49.95
2023-01-17T03:02:32.026Z,48.66
2023-01-17T03:03:31.863Z,50.92
2023-01-17T03:04:31.890Z,59.62
2023-01-17T03:05:31.860Z,60.59
2023-01-17T03:06:31.842Z,55.75
2023-01-17T03:07:31.870Z,60.59
2023-01-17T03:08:31.846Z,63.49
2023-01-17T03:09:31.830Z,51.24
2023-01-17T03:10:31.794Z,51.24
2023-01-17T03:11:31.822Z,59.62
2023-01-17T03:12:31.779Z,47.53
2023-01-17T03:13:31.809Z,49.47
2023-01-17T03:14:31.797Z,62.36
2023-01-17T03:15:31.754Z,59.78
2023-01-17T03:16:31.787Z,51.88
2023-01-17T03:17:31.783Z,59.14
2023-01-17T03:18:31.769Z,63.81
2023-01-17T03:19:31.736Z,49.15
2023-01-17T03:20:31.725Z,50.60
2023-01-17T03:21:31.722Z,55.43
2023-01-17T03:22:31.645Z,50.76
2023-01-17T03:23:31.650Z,58.81
2023-01-17T03:24:31.688Z,58.33
2023-01-17T03:25:31.637Z,53.50
2023-01-17T03:26:31.680Z,52.85
2023-01-17T03:27:31.644Z,51.40
2023-01-17T03:28:31.646Z,59.46
2023-01-17T03:29:31.677Z,63.33
2023-01-17T03:30:31.631Z,51.72
2023-01-17T03:31:31.553Z,52.05
2023-01-17T03:32:31.553Z,61.87
2023-01-17T03:33:31.575Z,60.91
2023-01-17T03:34:31.615Z,66.87
2023-01-17T03:35:31.553Z,64.13
2023-01-17T03:36:31.532Z,62.20
2023-01-17T03:37:31.584Z,62.68
2023-01-17T03:38:31.521Z,58.81
2023-01-17T03:39:31.503Z,57.85
2023-01-17T03:40:31.485Z,57.85
2023-01-17T03:41:31.530Z,69.45
2023-01-17T03:42:31.575Z,60.91
2023-01-17T03:43:31.482Z,67.84
2023-01-17T03:44:31.423Z,66.06
2023-01-17T03:45:31.476Z,64.94
2023-01-17T03:46:31.405Z,52.85
2023-01-17T03:47:31.412Z,68.32
2023-01-17T03:48:31.457Z,61.39
2023-01-17T03:49:31.397Z,63.33
2023-01-17T03:50:31.442Z,63.97
2023-01-17T03:51:31.400Z,61.87
2023-01-17T03:52:31.360Z,56.40
2023-01-17T03:53:31.394Z,62.52
2023-01-17T03:54:31.424Z,67.84
2023-01-17T03:55:31.320Z,66.06
2023-01-17T03:56:31.352Z,63.16
2023-01-17T03:57:31.301Z,64.29
2023-01-17T03:58:31.295Z,60.75
2023-01-17T03:59:31.292Z,56.72
2023-01-17T04:00:31.371Z,65.58
2023-01-17T04:01:31.396Z,64.29
2023-01-17T04:02:31.293Z,70.42
2023-01-17T04:03:31.209Z,68.16
2023-01-17T04:04:31.262Z,66.06
2023-01-17T04:05:31.208Z,63.49
2023-01-17T04:06:31.238Z,62.36
2023-01-17T04:07:31.213Z,68.64
2023-01-17T04:08:31.213Z,69.13
2023-01-17T04:09:31.144Z,68.80
2023-01-17T04:10:31.196Z,67.19
2023-01-17T04:11:31.172Z,65.90
2023-01-17T04:12:31.157Z,60.91
2023-01-17T04:13:31.150Z,62.36
2023-01-17T04:14:31.136Z,67.84
2023-01-17T04:15:31.101Z,68.16
2023-01-17T04:16:31.159Z,67.19
2023-01-17T04:17:31.092Z,64.29
2023-01-17T04:18:31.073Z,71.06
2023-01-17T04:19:31.104Z,62.68
2023-01-17T04:20:31.074Z,70.09
2023-01-17T04:21:31.099Z,69.93
2023-01-17T04:22:31.045Z,69.61
2023-01-17T04:23:31.075Z,71.06
2023-01-17T04:24:31.027Z,70.74
2023-01-17T04:25:37.757Z,71.70
2023-01-17T04:26:31.045Z,73.80
2023-01-17T04:27:30.974Z,69.29
2023-01-17T04:28:30.961Z,71.22
2023-01-17T04:29:30.963Z,71.70
2023-01-17T04:30:31.014Z,72.83
2023-01-17T04:31:31.022Z,71.54
2023-01-17T04:32:30.997Z,72.99
2023-01-17T04:33:30.964Z,71.06
2023-01-17T04:34:30.993Z,75.89
2023-01-17T04:35:30.900Z,72.19
2023-01-17T04:36:30.910Z,74.28
2023-01-17T04:37:30.848Z,73.96
2023-01-17T04:38:30.920Z,70.25
2023-01-17T04:39:31.028Z,75.41
2023-01-17T04:40:30.975Z,73.64
2023-01-17T04:41:30.913Z,73.32
2023-01-17T04:42:30.863Z,69.45
2023-01-17T04:43:30.868Z,75.41
2023-01-17T04:44:30.893Z,74.44
2023-01-17T04:45:30.918Z,74.77
2023-01-17T04:46:30.884Z,75.25
2023-01-17T04:47:30.783Z,73.80
2023-01-17T04:48:30.874Z,75.41
2023-01-17T04:49:30.796Z,72.83
2023-01-17T04:50:30.817Z,72.19
2023-01-17T04:51:30.788Z,75.25
2023-01-17T04:52:30.719Z,73.32
2023-01-17T04:53:30.755Z,72.83
2023-01-17T04:54:30.712Z,72.67
2023-01-17T04:55:30.909Z,72.19
2023-01-17T04:56:30.743Z,71.87
2023-01-17T04:57:30.746Z,71.70
2023-01-17T04:58:30.659Z,75.09
2023-01-17T04:59:30.676Z,72.51
2023-01-17T05:00:30.736Z,68.80
2023-01-17T05:01:30.763Z,72.51
2023-01-17T05:02:30.698Z,74.60
2023-01-17T05:03:30.641Z,71.70
2023-01-17T05:04:30.698Z,73.80
2023-01-17T05:05:30.650Z,74.28
2023-01-17T05:06:30.638Z,72.19
2023-01-17T05:07:30.587Z,72.99
2023-01-17T05:08:30.591Z,74.60
2023-01-17T05:09:30.608Z,73.15
2023-01-17T05:10:30.641Z,66.55
2023-01-17T05:11:30.652Z,73.64
2023-01-17T05:12:30.659Z,73.96
2023-01-17T05:13:30.550Z,73.96
2023-01-17T05:14:30.593Z,69.13
2023-01-17T05:15:30.526Z,73.80
2023-01-17T05:16:30.545Z,73.15
2023-01-17T05:17:30.485Z,72.99
2023-01-17T05:18:30.594Z,72.67
2023-01-17T05:19:31.353Z,73.80
2023-01-17T05:20:30.544Z,75.73
2023-01-17T05:21:30.465Z,71.38
2023-01-17T05:22:30.592Z,72.51
2023-01-17T05:23:30.481Z,75.41
2023-01-17T05:24:30.462Z,74.60
2023-01-17T05:25:30.406Z,72.35
2023-01-17T05:26:30.448Z,72.99
2023-01-17T05:27:30.428Z,74.12
2023-01-17T05:28:30.552Z,72.03
2023-01-17T05:29:30.544Z,74.28
2023-01-17T05:30:30.344Z,71.70
2023-01-17T05:31:30.379Z,74.12
2023-01-17T05:32:30.456Z,73.96
2023-01-17T05:33:30.397Z,76.54
2023-01-17T05:34:30.369Z,75.25
2023-01-17T05:35:30.294Z,75.89
2023-01-17T05:36:30.331Z,77.83
2023-01-17T05:37:30.340Z,77.34
2023-01-17T05:38:30.244Z,74.93
2023-01-17T05:39:30.268Z,75.57
2023-01-17T05:40:30.306Z,74.28
2023-01-17T05:41:30.297Z,77.83
2023-01-17T05:42:30.241Z,74.93
2023-01-17T05:43:30.253Z,74.93
2023-01-17T05:44:30.282Z,77.02
2023-01-17T05:45:30.176Z,77.99
2023-01-17T05:46:30.207Z,74.12
2023-01-17T05:47:30.145Z,76.86
2023-01-17T05:48:30.158Z,76.70
2023-01-17T05:49:30.173Z,73.48
2023-01-17T05:50:30.212Z,77.34
2023-01-17T05:51:30.146Z,75.25
2023-01-17T05:52:30.147Z,77.02
2023-01-17T05:53:30.223Z,75.73
2023-01-17T05:54:30.215Z,71.06
2023-01-17T05:55:30.182Z,76.86
2023-01-17T05:56:30.098Z,72.51
2023-01-17T05:57:30.131Z,75.73
2023-01-17T05:58:30.067Z,76.38
2023-01-17T05:59:36.969Z,74.60
2023-01-17T06:00:31.093Z,71.87
2023-01-17T06:01:30.139Z,73.96
2023-01-17T06:02:30.123Z,72.51
2023-01-17T06:03:30.067Z,75.09
2023-01-17T06:04:30.070Z,75.41
2023-01-17T06:05:30.104Z,70.58
2023-01-17T06:06:30.134Z,72.83
2023-01-17T06:07:29.963Z,73.80
2023-01-17T06:08:30.006Z,74.44
2023-01-17T06:09:30.061Z,72.67
2023-01-17T06:10:29.935Z,73.96
2023-01-17T06:11:29.960Z,71.87
2023-01-17T06:12:29.890Z,70.42
2023-01-17T06:13:29.914Z,75.09
2023-01-17T06:14:29.920Z,73.15
2023-01-17T06:15:29.917Z,75.25
2023-01-17T06:16:29.883Z,72.99
2023-01-17T06:17:30.042Z,73.64
2023-01-17T06:18:29.927Z,75.57
2023-01-17T06:19:30.040Z,73.48
2023-01-17T06:20:29.929Z,73.96
2023-01-17T06:21:29.908Z,73.48
2023-01-17T06:22:29.914Z,75.09
2023-01-17T06:23:29.909Z,72.99
2023-01-17T06:24:29.950Z,76.05
2023-01-17T06:25:29.924Z,76.54
2023-01-17T06:26:29.934Z,75.25
2023-01-17T06:27:29.952Z,73.64
2023-01-17T06:28:29.856Z,75.25
2023-01-17T06:29:29.841Z,75.09
2023-01-17T06:30:29.797Z,74.28
2023-01-17T06:31:29.815Z,76.38
2023-01-17T06:32:29.746Z,75.73
2023-01-17T06:33:29.766Z,75.25
2023-01-17T06:34:29.713Z,74.28
2023-01-17T06:35:29.688Z,75.09
2023-01-17T06:36:29.720Z,73.48
2023-01-17T06:37:29.667Z,76.86
2023-01-17T06:38:29.739Z,73.80
2023-01-17T06:39:29.837Z,74.93
2023-01-17T06:40:29.615Z,74.77
2023-01-17T06:41:29.647Z,74.93
2023-01-17T06:42:29.666Z,72.03
2023-01-17T06:43:29.645Z,76.38
2023-01-17T06:44:29.644Z,73.64
2023-01-17T06:45:29.710Z,76.05
2023-01-17T06:46:29.746Z,77.18
2023-01-17T06:47:29.581Z,74.44
2023-01-17T06:48:29.551Z,75.41
2023-01-17T06:49:29.570Z,75.57
2023-01-17T06:50:29.554Z,73.48
2023-01-17T06:51:29.541Z,73.32
2023-01-17T06:52:29.531Z,75.57
2023-01-17T06:53:29.493Z,74.60
2023-01-17T06:54:29.550Z,72.99
2023-01-17T06:55:29.485Z,74.93
2023-01-17T06:56:29.511Z,72.51
2023-01-17T06:57:29.512Z,75.09
2023-01-17T06:58:30.109Z,74.77
2023-01-17T06:59:29.479Z,74.28
2023-01-17T07:00:40.947Z,74.77
2023-01-17T07:01:30.528Z,74.44
2023-01-17T07:02:29.460Z,73.48
2023-01-17T07:03:29.466Z,74.28
2023-01-17T07:04:29.417Z,73.96
2023-01-17T07:05:29.432Z,71.87
2023-01-17T07:06:29.325Z,70.90
2023-01-17T07:07:29.370Z,71.38
2023-01-17T07:08:29.390Z,75.41
2023-01-17T07:09:29.310Z,73.32
2023-01-17T07:10:29.261Z,72.51
2023-01-17T07:11:29.314Z,72.19
2023-01-17T07:12:29.330Z,74.93
2023-01-17T07:13:29.275Z,74.12
2023-01-17T07:14:29.308Z,74.28
2023-01-17T07:15:29.236Z,75.89
2023-01-17T07:16:29.333Z,76.70
2023-01-17T07:17:29.871Z,73.96
2023-01-17T07:18:29.241Z,75.73
2023-01-17T07:19:29.352Z,74.93
2023-01-17T07:20:29.225Z,74.77
2023-01-17T07:21:29.223Z,75.09
2023-01-17T07:22:29.206Z,73.64
2023-01-17T07:23:29.840Z,73.48
2023-01-17T07:24:29.166Z,72.99
2023-01-17T07:25:29.164Z,69.93
2023-01-17T07:26:29.115Z,73.64
2023-01-17T07:27:29.139Z,75.09
2023-01-17T07:28:29.160Z,76.86
2023-01-17T07:29:29.150Z,74.93
2023-01-17T07:30:29.083Z,74.77
2023-01-17T07:31:29.129Z,73.32
2023-01-17T07:32:29.086Z,74.77
2023-01-17T07:33:29.052Z,74.12
2023-01-17T07:34:29.052Z,73.80
2023-01-17T07:35:29.023Z,74.77
2023-01-17T07:36:29.027Z,73.48
2023-01-17T07:37:29.040Z,73.48
2023-01-17T07:38:28.983Z,74.77
2023-01-17T07:39:28.972Z,74.12
2023-01-17T07:40:28.960Z,72.19
2023-01-17T07:41:28.965Z,73.80
2023-01-17T07:42:28.989Z,73.80
2023-01-17T07:44:02.391Z,71.70
2023-01-17T07:45:01.325Z,76.22
2023-01-17T07:45:28.909Z,73.48
2023-01-17T07:46:28.933Z,72.19
2023-01-17T07:47:28.909Z,72.51
2023-01-17T07:48:28.915Z,73.80
2023-01-17T07:49:28.884Z,71.70
2023-01-17T07:50:28.883Z,72.51
2023-01-17T07:51:28.899Z,75.89
2023-01-17T07:52:28.838Z,73.15
2023-01-17T07:53:28.802Z,72.35
2023-01-17T07:54:28.867Z,69.93
2023-01-17T07:55:28.816Z,71.87
2023-01-17T07:56:28.808Z,71.54
2023-01-17T07:57:28.822Z,70.58
2023-01-17T07:58:28.784Z,71.06
2023-01-17T07:59:28.746Z,75.41
2023-01-17T08:00:28.769Z,69.29
2023-01-17T08:01:28.827Z,66.06
2023-01-17T08:02:28.780Z,74.12
2023-01-17T08:03:28.767Z,74.93
2023-01-17T08:04:28.788Z,70.42
2023-01-17T08:05:28.744Z,72.67
2023-01-17T08:06:28.701Z,73.48
2023-01-17T08:07:28.734Z,65.42
2023-01-17T08:08:28.680Z,70.42
2023-01-17T08:09:28.695Z,73.80
2023-01-17T08:10:28.685Z,71.54
2023-01-17T08:11:28.628Z,70.09
2023-01-17T08:12:28.639Z,71.06
2023-01-17T08:13:29.936Z,69.13
2023-01-17T08:14:29.616Z,71.70
2023-01-17T08:15:28.608Z,70.90
2023-01-17T08:16:28.728Z,70.58
2023-01-17T08:17:29.314Z,73.96
2023-01-17T08:18:29.290Z,73.96
2023-01-17T08:19:28.571Z,73.80
2023-01-17T08:20:28.594Z,72.19
2023-01-17T08:21:28.541Z,72.35
2023-01-17T08:22:28.542Z,68.96
2023-01-17T08:23:28.531Z,71.70
2023-01-17T08:24:28.534Z,70.25
2023-01-17T08:25:28.502Z,71.70
2023-01-17T08:26:28.519Z,72.35
2023-01-17T08:27:28.501Z,67.68
2023-01-17T08:28:28.480Z,71.22
2023-01-17T08:29:28.482Z,69.13
2023-01-17T08:30:28.443Z,71.70
2023-01-17T08:31:28.486Z,71.54
2023-01-17T08:32:28.422Z,71.06
2023-01-17T08:33:28.496Z,70.42
2023-01-17T08:34:28.399Z,72.19
2023-01-17T08:35:28.420Z,73.48
2023-01-17T08:36:28.385Z,73.15
2023-01-17T08:37:28.383Z,70.25
2023-01-17T08:38:28.360Z,72.83
2023-01-17T08:39:28.380Z,73.48
2023-01-17T08:40:28.363Z,72.35
2023-01-17T08:41:28.352Z,72.19
2023-01-17T08:42:28.310Z,73.96
2023-01-17T08:43:28.347Z,72.99
2023-01-17T08:44:28.295Z,72.51
2023-01-17T08:45:28.376Z,72.99
2023-01-17T08:46:28.252Z,71.70
2023-01-17T08:47:28.263Z,73.15
2023-01-17T08:48:29.205Z,71.70
2023-01-17T08:49:28.802Z,71.06
2023-01-17T08:50:28.211Z,73.96
2023-01-17T08:51:28.218Z,72.03
2023-01-17T08:52:28.208Z,71.22
2023-01-17T08:53:28.232Z,71.70
2023-01-17T08:54:28.808Z,71.70
2023-01-17T08:55:28.223Z,74.28
2023-01-17T08:56:28.207Z,70.90
2023-01-17T08:57:28.147Z,73.48
2023-01-17T08:58:30.311Z,72.51
2023-01-17T08:59:28.132Z,70.42
2023-01-17T09:00:28.116Z,67.35
2023-01-17T09:01:28.327Z,70.74
2023-01-17T09:02:28.142Z,72.03
2023-01-17T09:03:28.083Z,72.03
2023-01-17T09:04:28.154Z,73.48
2023-01-17T09:05:28.087Z,65.10
2023-01-17T09:06:28.782Z,70.74
2023-01-17T09:07:28.085Z,66.55
2023-01-17T09:08:28.024Z,72.99
2023-01-17T09:09:28.040Z,69.77
2023-01-17T09:10:28.044Z,74.28
2023-01-17T09:11:28.058Z,72.51
2023-01-17T09:12:28.012Z,71.38
2023-01-17T09:13:28.093Z,72.19
2023-01-17T09:14:27.992Z,72.35
2023-01-17T09:15:27.985Z,72.03
2023-01-17T09:16:28.014Z,66.39
2023-01-17T09:17:27.955Z,71.22
2023-01-17T09:18:27.968Z,74.28
2023-01-17T09:19:27.964Z,70.25
2023-01-17T09:20:27.941Z,71.54
2023-01-17T09:21:27.927Z,69.45
2023-01-17T09:22:27.938Z,69.93
2023-01-17T09:23:27.985Z,70.58
2023-01-17T09:24:27.886Z,73.48
2023-01-17T09:25:27.876Z,68.00
2023-01-17T09:26:27.877Z,71.70
2023-01-17T09:27:27.858Z,70.25
2023-01-17T09:28:27.887Z,71.06
2023-01-17T09:29:27.883Z,71.87
2023-01-17T09:30:27.851Z,75.09
2023-01-17T09:31:27.847Z,69.45
2023-01-17T09:32:27.807Z,73.80
2023-01-17T09:33:27.791Z,73.32
2023-01-17T09:34:27.834Z,74.44
2023-01-17T09:35:27.759Z,72.51
2023-01-17T09:36:27.733Z,74.77
2023-01-17T09:37:27.757Z,71.87
2023-01-17T09:38:27.756Z,73.80
2023-01-17T09:39:27.810Z,69.45
2023-01-17T09:40:27.724Z,69.61
2023-01-17T09:41:27.861Z,72.35
2023-01-17T09:42:27.679Z,74.77
2023-01-17T09:43:28.666Z,70.42
2023-01-17T09:44:27.678Z,70.09
2023-01-17T09:45:27.707Z,72.99
2023-01-17T09:46:27.636Z,69.45
2023-01-17T09:47:27.715Z,70.58
2023-01-17T09:48:27.628Z,73.48
2023-01-17T09:49:27.619Z,70.25
2023-01-17T09:50:27.612Z,69.61
2023-01-17T09:51:27.615Z,68.64
2023-01-17T09:52:27.648Z,73.32
2023-01-17T09:53:27.587Z,72.03
2023-01-17T09:54:27.571Z,71.06
2023-01-17T09:55:27.616Z,72.19
2023-01-17T09:56:27.526Z,69.61
2023-01-17T09:57:27.560Z,65.42
2023-01-17T09:58:27.497Z,67.19
2023-01-17T09:59:33.270Z,65.58
2023-01-17T10:00:28.529Z,70.09
2023-01-17T10:01:27.795Z,71.38
2023-01-17T10:02:27.675Z,72.35
2023-01-17T10:03:27.587Z,66.55
2023-01-17T10:04:27.496Z,69.45
2023-01-17T10:05:27.440Z,70.25
2023-01-17T10:06:27.463Z,69.45
2023-01-17T10:07:27.427Z,71.70
2023-01-17T10:08:27.414Z,72.51
2023-01-17T10:09:27.386Z,71.22
2023-01-17T10:10:27.405Z,72.51
2023-01-17T10:11:27.367Z,68.64
2023-01-17T10:12:27.393Z,71.06
2023-01-17T10:13:27.395Z,69.93
2023-01-17T10:14:27.331Z,70.09
2023-01-17T10:15:27.332Z,69.93
2023-01-17T10:16:27.332Z,66.71
2023-01-17T10:17:27.345Z,70.74
2023-01-17T10:18:30.427Z,70.90
2023-01-17T10:19:28.317Z,70.74
2023-01-17T10:20:27.329Z,67.84
2023-01-17T10:21:27.265Z,70.74
2023-01-17T10:22:27.269Z,69.61
2023-01-17T10:23:27.301Z,63.00
2023-01-17T10:24:27.247Z,69.45
2023-01-17T10:25:27.213Z,67.51
2023-01-17T10:26:27.245Z,64.94
2023-01-17T10:27:28.179Z,67.35
2023-01-17T10:28:27.198Z,67.35
2023-01-17T10:29:27.202Z,70.58
2023-01-17T10:30:27.181Z,68.64
2023-01-17T10:31:27.158Z,68.96
2023-01-17T10:32:27.181Z,70.09
2023-01-17T10:33:27.179Z,69.13
2023-01-17T10:34:27.111Z,68.64
2023-01-17T10:35:27.169Z,69.13
2023-01-17T10:36:27.114Z,69.29
2023-01-17T10:37:27.159Z,68.96
2023-01-17T10:38:27.086Z,68.80
2023-01-17T10:39:27.071Z,73.32
2023-01-17T10:40:27.057Z,70.25
2023-01-17T10:41:27.062Z,71.87
2023-01-17T10:42:27.065Z,70.74
2023-01-17T10:43:27.033Z,70.90
2023-01-17T10:44:27.089Z,68.48
2023-01-17T10:45:27.013Z,71.38
2023-01-17T10:46:27.058Z,68.32
2023-01-17T10:47:26.994Z,69.13
2023-01-17T10:48:26.978Z,69.29
2023-01-17T10:49:26.959Z,70.42
2023-01-17T10:50:26.982Z,70.74
2023-01-17T10:51:26.945Z,70.42
2023-01-17T10:52:26.938Z,68.64
2023-01-17T10:53:26.940Z,68.96
2023-01-17T10:54:26.915Z,70.58
2023-01-17T10:55:26.906Z,65.26
2023-01-17T10:56:26.947Z,69.13
2023-01-17T10:57:26.878Z,71.38
2023-01-17T10:59:00.711Z,72.03
2023-01-17T10:59:26.895Z,71.54
2023-01-17T11:00:26.871Z,69.13
2023-01-17T11:01:26.917Z,66.55
2023-01-17T11:02:27.049Z,70.58
2023-01-17T11:03:26.866Z,74.28
2023-01-17T11:04:26.849Z,70.74
2023-01-17T11:05:26.786Z,69.93
2023-01-17T11:06:26.807Z,68.16
2023-01-17T11:07:26.866Z,71.54
2023-01-17T11:08:26.788Z,73.32
2023-01-17T11:09:26.858Z,70.25
2023-01-17T11:10:26.777Z,70.09
2023-01-17T11:11:26.727Z,69.61
2023-01-17T11:12:26.739Z,69.13
2023-01-17T11:13:26.715Z,68.64
2023-01-17T11:14:26.719Z,66.23
2023-01-17T11:15:26.677Z,69.13
2023-01-17T11:16:27.688Z,71.54
2023-01-17T11:17:27.757Z,69.29
2023-01-17T11:18:26.745Z,67.68
2023-01-17T11:19:26.773Z,68.32
2023-01-17T11:20:26.699Z,65.58
2023-01-17T11:21:26.756Z,70.09
2023-01-17T11:22:26.685Z,64.45
2023-01-17T11:23:26.636Z,59.46
2023-01-17T11:24:26.766Z,66.06
2023-01-17T11:25:26.623Z,59.94
2023-01-17T11:26:26.618Z,63.16
2023-01-17T11:27:26.599Z,63.16
2023-01-17T11:28:26.579Z,63.97
2023-01-17T11:29:26.606Z,66.23
2023-01-17T11:30:26.571Z,60.59
2023-01-17T11:31:26.669Z,65.90
2023-01-17T11:32:26.520Z,63.16
2023-01-17T11:33:27.890Z,67.03
2023-01-17T11:34:26.531Z,67.84
2023-01-17T11:35:26.540Z,67.03
2023-01-17T11:36:26.479Z,66.39
2023-01-17T11:37:26.485Z,62.36
2023-01-17T11:38:26.476Z,67.35
2023-01-17T11:39:26.522Z,60.75
2023-01-17T11:40:26.410Z,65.10
2023-01-17T11:41:26.459Z,62.84
2023-01-17T11:42:26.456Z,63.97
2023-01-17T11:43:26.413Z,66.39
2023-01-17T11:44:26.426Z,61.23
2023-01-17T11:45:26.393Z,61.87
2023-01-17T11:46:26.387Z,66.55
2023-01-17T11:47:26.383Z,60.42
2023-01-17T11:48:26.360Z,58.65
2023-01-17T11:49:26.363Z,68.16
2023-01-17T11:50:26.362Z,64.45
2023-01-17T11:51:26.381Z,67.35
2023-01-17T11:52:26.391Z,66.55
2023-01-17T11:53:26.287Z,63.97
2023-01-17T11:54:26.314Z,64.29
2023-01-17T11:55:26.343Z,65.74
2023-01-17T11:56:26.321Z,64.78
2023-01-17T11:57:26.333Z,64.61
2023-01-17T11:58:26.304Z,65.42
2023-01-17T11:59:26.221Z,68.64
2023-01-17T12:00:26.208Z,66.87
2023-01-17T12:01:26.242Z,66.39
2023-01-17T12:02:26.200Z,68.16
2023-01-17T12:03:26.228Z,67.51
2023-01-17T12:04:26.200Z,68.64
2023-01-17T12:05:26.210Z,70.25
2023-01-17T12:06:26.288Z,68.80
2023-01-17T12:07:26.108Z,68.00
2023-01-17T12:08:26.155Z,64.78
2023-01-17T12:09:26.142Z,68.32
2023-01-17T12:10:26.162Z,64.94
2023-01-17T12:11:26.125Z,67.35
2023-01-17T12:12:26.161Z,64.29
2023-01-17T12:13:26.149Z,66.23
2023-01-17T12:14:26.089Z,68.96
2023-01-17T12:15:26.069Z,66.39
2023-01-17T12:16:26.085Z,69.13
2023-01-17T12:17:26.067Z,64.94
2023-01-17T12:18:26.021Z,67.84
2023-01-17T12:19:26.141Z,67.19
2023-01-17T12:20:26.010Z,66.39
2023-01-17T12:21:26.008Z,67.51
2023-01-17T12:22:26.111Z,63.49
2023-01-17T12:23:26.035Z,65.26
2023-01-17T12:24:25.969Z,64.45
2023-01-17T12:25:26.001Z,67.19
2023-01-17T12:26:25.998Z,65.74
2023-01-17T12:27:25.945Z,69.45
2023-01-17T12:28:26.674Z,65.10
2023-01-17T12:29:25.879Z,64.94
2023-01-17T12:30:25.857Z,66.23
2023-01-17T12:31:26.008Z,61.07
2023-01-17T12:32:25.859Z,69.77
2023-01-17T12:33:25.830Z,69.29
2023-01-17T12:34:25.809Z,69.77
2023-01-17T12:35:25.843Z,62.52
2023-01-17T12:36:25.791Z,70.09
2023-01-17T12:37:25.846Z,67.35
2023-01-17T12:38:32.611Z,68.64
2023-01-17T12:39:27.817Z,70.74
2023-01-17T12:40:25.827Z,70.25
2023-01-17T12:41:25.750Z,69.93
2023-01-17T12:42:25.778Z,70.58
2023-01-17T12:43:26.220Z,71.54
2023-01-17T12:44:25.718Z,69.77
2023-01-17T12:45:25.730Z,70.58
2023-01-17T12:46:25.834Z,72.03
2023-01-17T12:47:25.718Z,73.80
2023-01-17T12:48:25.743Z,73.15
2023-01-17T12:49:25.692Z,71.70
2023-01-17T12:50:25.683Z,69.93
2023-01-17T12:51:25.651Z,70.25
2023-01-17T12:52:25.636Z,70.42